Austin, TX (78763)

9:04 AM CST on March 05, 2015 (GMT -0600)
West Austin | Change Station
CLOSE
Current Station
Personal Weather Station
Location: Austin, TX
Elevation: 617 ft
Nearby Weather Stations

Elev 617 ft 30.29 °N, 97.75 °W | Updated 6 minutes ago

Scattered Clouds
Scattered Clouds
32.4 °F
Feels Like 32 °F
N
2.7
Wind Variable Wind from North

Today
High -- | Low -- °F
--% Chance of Precip.
Yesterday
High -- | Low -- °F
Precip. -- in
6:52 AM 6:32 PM
Full, 100% visible
Pressure 30.56 in
Visibility 10.0 miles
Clouds Scattered Clouds 2300 ft
Scattered Clouds 11000 ft
Windchill 32 °F
Dew Point 30 °F
Humidity 90%
Rainfall in
Snow Depth Not available.
UV 2 out of 12
Pollen 3.60 out of 12
Air Quality Not available.
Flu Activity Not available.
METAR KATT 051451Z AUTO 36011G22KT 10SM SCT023 SCT110 00/M05 A3052 RMK AO2 PK WND 36026/1406 SLP347 T00001050 51033

More Conditions Fewer Conditions

Pressure 30.56 in
Visibility 10.0 miles
Clouds Scattered Clouds 2300 ft
Scattered Clouds 11000 ft
Windchill 32 °F
Dew Point 30 °F
Humidity 90%
Rainfall in
Snow Depth Not available.
UV 2 out of 12
Pollen 3.60 out of 12
Air Quality Not available.
Flu Activity Not available.
METAR KATT 051451Z AUTO 36011G22KT 10SM SCT023 SCT110 00/M05 A3052 RMK AO2 PK WND 36026/1406 SLP347 T00001050 51033

More Conditions Fewer Conditions

10-Day Weather Forecast

Almanac

Astronomy

Mar. 05, 2015 Rise Set
Actual Time
Civil Twilight
Nautical Twilight
Astronomical Twilight
Moon
Length of Visible Light
Length of Day
Tomorrow will be .
, % of the Moon is Illuminated

Today's Extremes

State Highs State Lows

Community

WunderPhotos

Upload Photos

1,802,801 photos uploaded!

WunderBlogs® & News

Nearby

Air Quality

  Air Quality AQ Index Pollutant
Not available.

Snow Depth

Station Depth Elevation

Earthquake Activity

City Distance Mag. Time & Date
Minimum magnitude displayed is 2.5.

Coastal Water Temperatures

Place Temperature

Nearby Weather Stations